Time;durP1;ratioP1;P1;durP2;ratioP2;P2;SDS_P1;SDS_P2;PMS_P1;PMS_P2;Temp;Humidity;BMP_temperature;BMP_pressure;BME280_temperature;BME280_humidity;BME280_pressure;Samples;Min_cycle;Max_cycle;Signal;HPM_P1;HPM_P2
2022/04/20 00:00:42;;;;;;;19.88;17.73;;;7.70;76.10;;;;;;5130847;27;20452;-63
2022/04/20 00:03:08;;;;;;;19.05;17.02;;;7.70;76.00;;;;;;5127972;27;20031;-62
2022/04/20 00:05:34;;;;;;;17.92;15.90;;;7.70;76.10;;;;;;5128779;27;20059;-63
2022/04/20 00:08:00;;;;;;;17.42;15.20;;;7.60;76.00;;;;;;5109893;27;20104;-62
2022/04/20 00:10:28;;;;;;;16.38;14.68;;;7.60;76.00;;;;;;5128795;27;20155;-63
2022/04/20 00:12:54;;;;;;;15.82;14.13;;;7.60;76.20;;;;;;5127841;27;20079;-62
2022/04/20 00:15:20;;;;;;;16.15;14.30;;;7.50;76.30;;;;;;5110473;27;20046;-62
2022/04/20 00:17:46;;;;;;;15.63;13.80;;;7.50;76.30;;;;;;5128237;27;20023;-62
2022/04/20 00:20:11;;;;;;;14.77;13.05;;;7.60;76.30;;;;;;5111269;27;20038;-62
2022/04/20 00:22:37;;;;;;;14.27;12.65;;;7.50;76.20;;;;;;5129074;27;20034;-63
2022/04/20 00:25:04;;;;;;;13.88;12.40;;;7.50;76.00;;;;;;5111559;27;20561;-62
2022/04/20 00:27:35;;;;;;;13.93;12.52;;;7.50;76.10;;;;;;5128881;27;20031;-63
2022/04/20 00:30:20;;;;;;;12.60;11.07;;;7.50;76.20;;;;;;5129016;27;20023;-61
2022/04/20 00:32:46;;;;;;;13.93;12.43;;;7.50;76.20;;;;;;5132677;27;20015;-63
2022/04/20 00:35:12;;;;;;;13.15;11.40;;;7.50;76.20;;;;;;5110072;27;20088;-64
2022/04/20 00:37:41;;;;;;;14.82;10.75;;;7.50;76.20;;;;;;5128539;27;20379;-62
2022/04/20 00:40:08;;;;;;;13.52;11.30;;;7.50;76.00;;;;;;5127440;27;20083;-61
2022/04/20 00:42:36;;;;;;;12.02;10.82;;;7.50;75.80;;;;;;5128225;27;20100;-62
2022/04/20 00:45:02;;;;;;;16.08;11.68;;;7.50;76.00;;;;;;5127348;27;20016;-62
2022/04/20 00:47:29;;;;;;;12.10;10.68;;;7.40;76.00;;;;;;5128800;27;20031;-61
2022/04/20 00:49:56;;;;;;;14.07;12.15;;;7.40;76.00;;;;;;5127079;27;20027;-62
2022/04/20 00:52:22;;;;;;;13.13;11.50;;;7.40;76.20;;;;;;5109410;27;20083;-63
2022/04/20 00:54:48;;;;;;;13.15;11.77;;;7.30;76.30;;;;;;5127523;27;20335;-63
2022/04/20 00:57:15;;;;;;;13.10;11.55;;;7.40;76.40;;;;;;5111452;28;20401;-63
2022/04/20 00:59:41;;;;;;;13.02;11.25;;;7.40;76.20;;;;;;5128242;27;20039;-61
2022/04/20 01:02:07;;;;;;;12.70;11.02;;;7.40;76.80;;;;;;5130191;27;20103;-63
2022/04/20 01:04:33;;;;;;;12.77;11.45;;;7.40;76.00;;;;;;5127842;27;20513;-61
2022/04/20 01:07:08;;;;;;;13.15;11.75;;;7.40;76.10;;;;;;5128763;27;20042;-62
2022/04/20 01:09:34;;;;;;;12.45;11.05;;;7.40;75.90;;;;;;5129856;27;20460;-63
2022/04/20 01:12:00;;;;;;;13.82;12.05;;;7.50;76.00;;;;;;5108766;28;20024;-62
2022/04/20 01:14:26;;;;;;;13.75;11.35;;;7.50;75.90;;;;;;5131939;28;20038;-62
2022/04/20 01:16:51;;;;;;;12.27;10.75;;;7.40;75.80;;;;;;5127533;27;20143;-63
2022/04/20 01:19:17;;;;;;;13.68;11.90;;;7.40;75.70;;;;;;5127556;28;20122;-62
2022/04/20 01:21:43;;;;;;;14.77;11.80;;;7.40;75.60;;;;;;5128250;27;20614;-61
2022/04/20 01:24:08;;;;;;;13.75;12.23;;;7.40;75.80;;;;;;5108381;28;20420;-61
2022/04/20 01:26:35;;;;;;;13.52;11.80;;;7.30;76.00;;;;;;5129589;28;20456;-61
2022/04/20 01:29:03;;;;;;;13.35;11.93;;;7.40;76.20;;;;;;5126496;27;20035;-61
2022/04/20 01:31:30;;;;;;;13.07;11.68;;;7.40;76.10;;;;;;5130216;27;20027;-62
2022/04/20 01:33:56;;;;;;;14.20;11.90;;;7.30;76.10;;;;;;5129370;27;20078;-62
2022/04/20 01:36:22;;;;;;;12.75;11.32;;;7.30;76.20;;;;;;5130005;27;20051;-61
2022/04/20 01:38:47;;;;;;;12.68;11.32;;;7.30;76.30;;;;;;5131094;27;20035;-62
2022/04/20 01:41:14;;;;;;;17.02;12.32;;;7.30;76.30;;;;;;5131035;27;20421;-62
2022/04/20 01:43:40;;;;;;;18.75;12.63;;;7.20;76.50;;;;;;5112902;27;20531;-61
2022/04/20 01:46:06;;;;;;;16.38;12.52;;;7.20;76.70;;;;;;5131179;27;20111;-61
2022/04/20 01:48:31;;;;;;;15.32;11.80;;;7.10;77.00;;;;;;5112969;27;20050;-62
2022/04/20 01:53:41;;;;;;;;;;;7.20;77.00;;;;;;5135295;27;20030;-63
2022/04/20 01:56:07;;;;;;;12.18;10.88;;;7.20;76.90;;;;;;5113435;27;19938;-61
2022/04/20 01:58:34;;;;;;;12.50;10.98;;;7.20;76.70;;;;;;5134978;27;20106;-63
2022/04/20 02:01:01;;;;;;;12.25;10.95;;;7.20;76.80;;;;;;5133495;27;20042;-62
2022/04/20 02:03:26;;;;;;;12.88;11.05;;;7.10;76.80;;;;;;5114640;27;20486;-62
2022/04/20 02:05:52;;;;;;;13.43;12.02;;;7.10;76.90;;;;;;5130567;27;20031;-64
2022/04/20 02:08:18;;;;;;;12.63;11.20;;;7.10;76.90;;;;;;5132586;27;20471;-61
2022/04/20 02:10:45;;;;;;;12.85;11.35;;;7.10;77.10;;;;;;5133534;27;20050;-61
2022/04/20 02:13:11;;;;;;;14.35;11.60;;;7.10;77.00;;;;;;5130068;27;20084;-62
2022/04/20 02:15:37;;;;;;;13.77;12.27;;;7.10;77.00;;;;;;5131044;27;20034;-62
2022/04/20 02:18:03;;;;;;;12.93;11.60;;;7.10;76.90;;;;;;5112098;27;20026;-61
2022/04/20 02:20:29;;;;;;;16.67;12.50;;;7.10;77.10;;;;;;5113634;27;20083;-62
2022/04/20 02:22:54;;;;;;;13.68;12.07;;;7.00;77.20;;;;;;5111743;27;20030;-62
2022/04/20 02:25:20;;;;;;;14.52;11.68;;;7.00;77.40;;;;;;5112327;27;20035;-62
2022/04/20 02:27:46;;;;;;;13.55;12.05;;;7.00;77.50;;;;;;5130462;27;20079;-63
2022/04/20 02:30:12;;;;;;;14.02;12.57;;;7.00;77.50;;;;;;5129929;27;20520;-61
2022/04/20 02:32:37;;;;;;;14.63;12.85;;;7.10;77.60;;;;;;5133420;27;20023;-61
2022/04/20 02:35:03;;;;;;;15.50;13.82;;;7.10;77.30;;;;;;5111563;27;20027;-61
2022/04/20 02:37:29;;;;;;;15.43;13.07;;;7.10;77.10;;;;;;5112308;27;20023;-63
2022/04/20 02:39:55;;;;;;;16.05;13.25;;;7.10;77.10;;;;;;5133146;27;20070;-61
2022/04/20 02:42:21;;;;;;;15.27;13.68;;;7.10;77.20;;;;;;5133436;27;20082;-62
2022/04/20 02:44:47;;;;;;;15.95;14.25;;;7.10;77.10;;;;;;5131166;27;20029;-61
2022/04/20 02:47:16;;;;;;;17.27;14.05;;;7.10;77.10;;;;;;5130171;27;20360;-61
2022/04/20 02:49:41;;;;;;;16.45;14.45;;;7.10;77.00;;;;;;5130428;27;20064;-62
2022/04/20 02:52:08;;;;;;;17.77;14.93;;;7.10;77.00;;;;;;5129913;27;20027;-63
2022/04/20 02:54:33;;;;;;;17.45;15.05;;;7.10;77.10;;;;;;5112022;27;20023;-61
2022/04/20 02:56:59;;;;;;;17.42;14.73;;;7.10;77.00;;;;;;5129830;27;20023;-61
2022/04/20 02:59:25;;;;;;;18.33;15.40;;;7.10;76.90;;;;;;5130795;27;20042;-61
2022/04/20 03:01:50;;;;;;;18.48;15.52;;;7.10;76.70;;;;;;5111264;27;20067;-64
2022/04/20 03:04:16;;;;;;;18.52;15.73;;;7.10;76.60;;;;;;5129928;27;20019;-64
2022/04/20 03:06:42;;;;;;;17.38;15.00;;;7.10;76.60;;;;;;5129534;27;20095;-62
2022/04/20 03:09:08;;;;;;;15.75;14.15;;;7.10;76.70;;;;;;5128858;27;20391;-62
2022/04/20 03:11:52;;;;;;;17.27;14.77;;;7.10;76.70;;;;;;5129349;27;20023;-62
2022/04/20 03:14:18;;;;;;;20.17;15.02;;;7.10;76.70;;;;;;5129684;27;20019;-62
2022/04/20 03:16:44;;;;;;;17.10;14.90;;;7.10;76.90;;;;;;5129149;27;20026;-61
2022/04/20 03:19:10;;;;;;;16.40;14.55;;;7.10;76.60;;;;;;5132742;27;20114;-61
2022/04/20 03:21:35;;;;;;;16.33;14.57;;;7.20;76.50;;;;;;5134612;27;20103;-60
2022/04/20 03:24:02;;;;;;;16.88;15.10;;;7.20;76.40;;;;;;5132371;27;20446;-63
2022/04/20 03:26:28;;;;;;;19.40;15.80;;;7.20;76.10;;;;;;5112869;27;20031;-61
2022/04/20 03:28:54;;;;;;;17.50;14.80;;;7.20;76.10;;;;;;5115173;27;20046;-62
2022/04/20 03:31:20;;;;;;;19.20;16.02;;;7.10;76.00;;;;;;5131301;27;20353;-62
2022/04/20 03:33:45;;;;;;;17.77;15.52;;;7.10;76.00;;;;;;5129202;27;20023;-62
2022/04/20 03:36:11;;;;;;;18.33;14.27;;;7.20;76.00;;;;;;5110046;27;20015;-62
2022/04/20 03:38:37;;;;;;;17.65;14.23;;;7.10;76.00;;;;;;5129022;27;20425;-62
2022/04/20 03:41:04;;;;;;;20.40;15.27;;;7.10;76.00;;;;;;5130821;27;20051;-62
2022/04/20 03:43:30;;;;;;;21.52;15.88;;;7.20;76.00;;;;;;5111808;27;20392;-61
2022/04/20 03:45:56;;;;;;;18.13;16.23;;;7.10;76.00;;;;;;5109101;27;20491;-63
2022/04/20 03:48:22;;;;;;;21.00;16.77;;;7.20;75.90;;;;;;5128669;27;20528;-61
2022/04/20 03:50:48;;;;;;;21.80;15.32;;;7.10;75.70;;;;;;5129580;27;20050;-62
2022/04/20 03:53:14;;;;;;;18.80;16.48;;;7.10;75.70;;;;;;5127395;27;20156;-63
2022/04/20 03:55:40;;;;;;;16.48;14.73;;;7.10;75.80;;;;;;5129896;27;20023;-63
2022/04/20 03:58:06;;;;;;;18.90;14.48;;;7.10;75.90;;;;;;5110859;27;20034;-62
2022/04/20 04:00:32;;;;;;;17.08;14.48;;;7.10;76.50;;;;;;5133120;27;20039;-62
2022/04/20 04:02:57;;;;;;;16.60;14.68;;;7.10;75.90;;;;;;5113254;27;20019;-63
2022/04/20 04:05:23;;;;;;;16.38;14.68;;;7.10;75.90;;;;;;5130314;27;20084;-61
2022/04/20 04:07:49;;;;;;;17.23;15.07;;;7.10;76.10;;;;;;5113792;27;20071;-62
2022/04/20 04:10:15;;;;;;;16.73;14.88;;;7.10;76.20;;;;;;5131889;27;20053;-62
2022/04/20 04:12:41;;;;;;;18.80;15.20;;;7.10;76.20;;;;;;5133189;27;20029;-61
2022/04/20 04:15:08;;;;;;;17.48;15.20;;;7.10;76.30;;;;;;5112195;27;20030;-61
2022/04/20 04:17:34;;;;;;;19.30;15.90;;;7.10;76.40;;;;;;5110135;27;20025;-62
2022/04/20 04:20:00;;;;;;;19.60;15.80;;;7.10;76.30;;;;;;5128228;27;20066;-67
2022/04/20 04:22:25;;;;;;;18.90;15.85;;;7.20;76.30;;;;;;5131402;27;20034;-61
2022/04/20 04:24:51;;;;;;;18.25;15.25;;;7.20;76.00;;;;;;5129464;27;20391;-62
2022/04/20 04:27:17;;;;;;;19.60;16.02;;;7.20;75.90;;;;;;5109432;27;20572;-62
2022/04/20 04:29:43;;;;;;;19.70;16.48;;;7.20;75.90;;;;;;5128061;27;20377;-62
2022/04/20 04:32:09;;;;;;;22.75;17.73;;;7.30;75.90;;;;;;5131322;27;20022;-61
2022/04/20 04:34:34;;;;;;;24.40;17.58;;;7.30;75.80;;;;;;5112214;27;20106;-63
2022/04/20 04:37:00;;;;;;;23.52;17.05;;;7.40;75.70;;;;;;5129346;27;20091;-64
2022/04/20 04:39:29;;;;;;;22.33;16.50;;;7.40;75.50;;;;;;5128806;27;20039;-61
2022/04/20 04:42:02;;;;;;;22.08;16.65;;;7.40;75.30;;;;;;5112355;27;20086;-61
2022/04/20 04:44:29;;;;;;;24.52;17.35;;;7.50;75.30;;;;;;5128555;27;20046;-62
2022/04/20 04:49:39;;;;;;;22.90;16.50;;;7.50;75.10;;;;;;5127547;27;20062;-63
2022/04/20 04:52:11;;;;;;;20.83;17.27;;;7.40;75.10;;;;;;5128826;27;20444;-63
2022/04/20 04:54:38;;;;;;;21.52;17.48;;;7.50;75.30;;;;;;5130004;27;20494;-63
2022/04/20 04:57:07;;;;;;;21.80;16.42;;;7.50;75.00;;;;;;5132144;27;20019;-63
2022/04/20 04:59:34;;;;;;;25.45;16.90;;;7.60;75.10;;;;;;5132719;27;20027;-61
2022/04/20 05:01:59;;;;;;;19.20;16.70;;;7.70;74.80;;;;;;5114370;28;20055;-59
2022/04/20 05:04:25;;;;;;;18.70;16.52;;;7.70;74.40;;;;;;5132030;27;20031;-59
2022/04/20 05:06:51;;;;;;;20.73;17.10;;;7.80;74.30;;;;;;5114563;27;20023;-61
2022/04/20 05:09:17;;;;;;;20.02;17.17;;;7.80;74.20;;;;;;5113147;28;20126;-61
2022/04/20 05:11:43;;;;;;;27.80;18.25;;;7.90;74.20;;;;;;5113962;27;20054;-61
2022/04/20 05:14:09;;;;;;;25.92;17.77;;;8.00;73.90;;;;;;5132064;27;20031;-62
2022/04/20 05:16:35;;;;;;;22.52;17.08;;;8.00;73.70;;;;;;5114006;28;20064;-62
2022/04/20 05:19:01;;;;;;;18.90;15.75;;;8.10;73.50;;;;;;5132306;27;20035;-58
2022/04/20 05:21:26;;;;;;;22.98;18.02;;;8.10;73.40;;;;;;5132147;28;20027;-58
2022/04/20 05:23:54;;;;;;;18.35;16.35;;;8.20;73.10;;;;;;5132686;27;20023;-59
2022/04/20 05:26:20;;;;;;;24.40;17.10;;;8.30;73.10;;;;;;5113619;28;20023;-60
2022/04/20 05:28:46;;;;;;;29.98;17.30;;;8.40;73.50;;;;;;5132823;28;20031;-58
2022/04/20 05:31:12;;;;;;;24.02;17.90;;;8.50;72.40;;;;;;5131804;28;20027;-58
2022/04/20 05:33:38;;;;;;;23.27;17.40;;;8.50;72.10;;;;;;5132368;27;20448;-60
2022/04/20 05:36:04;;;;;;;19.02;16.65;;;8.50;72.10;;;;;;5132680;27;20058;-57
2022/04/20 05:43:57;;;;;;;17.77;15.25;;;8.60;71.20;;;;;;5132241;28;20031;-56
2022/04/20 05:46:23;;;;;;;16.77;14.95;;;8.70;71.00;;;;;;5113351;28;20027;-59
2022/04/20 05:48:49;;;;;;;17.52;15.55;;;8.70;70.80;;;;;;5131981;28;20023;-56
2022/04/20 05:51:15;;;;;;;21.27;16.35;;;8.70;71.00;;;;;;5113625;28;20027;-58
2022/04/20 05:53:40;;;;;;;17.55;15.63;;;8.80;70.80;;;;;;5113851;28;20054;-57
2022/04/20 05:56:06;;;;;;;22.13;15.98;;;8.90;70.80;;;;;;5132155;28;20023;-56
2022/04/20 05:58:32;;;;;;;20.60;14.90;;;9.00;70.40;;;;;;5131337;28;20027;-56
2022/04/20 06:00:58;;;;;;;18.80;14.73;;;9.10;70.10;;;;;;5131796;27;20030;-55
2022/04/20 06:03:23;;;;;;;19.65;15.40;;;9.20;69.70;;;;;;5130725;27;20022;-58
2022/04/20 06:06:08;;;;;;;19.27;16.15;;;9.30;69.10;;;;;;5113655;28;20059;-56
2022/04/20 06:08:34;;;;;;;18.15;16.25;;;9.40;68.90;;;;;;5131581;28;20019;-58
2022/04/20 06:11:00;;;;;;;17.23;14.93;;;9.50;68.70;;;;;;5132572;27;20019;-57
2022/04/20 06:13:38;;;;;;;20.48;15.93;;;9.60;68.40;;;;;;5113816;28;20027;-57
2022/04/20 06:16:06;;;;;;;18.10;15.43;;;9.60;67.80;;;;;;5113844;28;20031;-54
2022/04/20 06:18:32;;;;;;;18.92;16.20;;;9.60;67.70;;;;;;5112966;28;20051;-58
2022/04/20 06:20:57;;;;;;;18.58;15.50;;;9.60;67.30;;;;;;5132431;27;20062;-57
2022/04/20 06:23:23;;;;;;;18.38;14.80;;;9.60;67.40;;;;;;5116645;27;20019;-55
2022/04/20 06:25:52;;;;;;;25.27;15.25;;;9.60;67.00;;;;;;5135480;27;20023;-55
2022/04/20 06:28:18;;;;;;;27.75;15.18;;;9.70;67.10;;;;;;5135463;27;20027;-58
2022/04/20 06:31:02;;;;;;;22.00;14.88;;;9.70;66.90;;;;;;5135028;27;20027;-60
2022/04/20 06:33:28;;;;;;;17.10;15.27;;;9.80;66.60;;;;;;5115913;27;20027;-54
2022/04/20 06:35:54;;;;;;;24.13;16.27;;;10.00;66.60;;;;;;5135294;27;20038;-60
2022/04/20 06:38:20;;;;;;;21.52;15.45;;;10.20;66.10;;;;;;5134180;27;20109;-59
2022/04/20 06:40:46;;;;;;;16.85;14.73;;;10.30;66.50;;;;;;5134783;27;20028;-57
2022/04/20 06:43:12;;;;;;;18.27;14.15;;;10.50;65.30;;;;;;5134985;27;20035;-61
2022/04/20 06:45:38;;;;;;;20.70;15.80;;;10.50;64.90;;;;;;5135126;27;20028;-55
2022/04/20 06:48:05;;;;;;;18.13;14.40;;;10.50;64.00;;;;;;5116562;27;20487;-55
2022/04/20 06:50:30;;;;;;;17.10;15.18;;;10.50;63.90;;;;;;5134078;27;20217;-56
2022/04/20 06:58:38;;;;;;;20.95;15.88;;;10.60;64.10;;;;;;5134469;27;20370;-55
2022/04/20 07:01:04;;;;;;;17.55;15.77;;;10.70;64.20;;;;;;5116948;27;20039;-56
2022/04/20 07:03:31;;;;;;;20.17;14.55;;;10.80;63.50;;;;;;5134273;27;20023;-57
2022/04/20 07:05:58;;;;;;;16.98;15.20;;;11.00;63.00;;;;;;5135331;27;20023;-57
2022/04/20 07:08:24;;;;;;;17.42;15.38;;;11.30;62.70;;;;;;5134448;27;20047;-53
2022/04/20 07:10:50;;;;;;;19.67;16.15;;;11.50;62.10;;;;;;5133411;27;20042;-59
2022/04/20 07:13:16;;;;;;;20.48;14.25;;;12.40;63.00;;;;;;5115162;27;20414;-55
2022/04/20 07:15:42;;;;;;;15.80;13.02;;;15.50;58.90;;;;;;5097900;27;20027;-55
2022/04/20 07:18:09;;;;;;;13.52;12.23;;;18.70;51.80;;;;;;5113531;27;20050;-55
2022/04/20 07:20:34;;;;;;;19.58;11.00;;;21.40;45.30;;;;;;5132466;27;20027;-57
2022/04/20 07:23:00;;;;;;;13.52;11.70;;;23.80;40.30;;;;;;5133918;27;20332;-54
2022/04/20 07:25:26;;;;;;;13.98;11.48;;;25.40;36.00;;;;;;5130577;27;20080;-57
2022/04/20 07:27:51;;;;;;;14.75;11.10;;;26.70;33.20;;;;;;5113696;27;20027;-58
2022/04/20 07:30:18;;;;;;;12.98;11.65;;;27.80;31.90;;;;;;5114614;27;20106;-60
2022/04/20 07:32:44;;;;;;;24.33;11.32;;;28.20;29.80;;;;;;5133088;27;20539;-62
2022/04/20 07:35:10;;;;;;;12.48;11.18;;;29.30;29.20;;;;;;5114992;27;20019;-57
2022/04/20 07:37:36;;;;;;;13.32;11.32;;;30.20;27.80;;;;;;5114887;27;20051;-56
2022/04/20 07:40:03;;;;;;;24.98;12.40;;;30.80;27.60;;;;;;5134038;27;20046;-55
2022/04/20 07:42:28;;;;;;;9.77;8.82;;;32.00;26.50;;;;;;5133254;27;20121;-57
2022/04/20 07:44:56;;;;;;;16.98;11.48;;;33.10;26.40;;;;;;5134221;27;20121;-58
2022/04/20 07:47:25;;;;;;;11.63;10.25;;;33.70;25.00;;;;;;5133520;27;20055;-60
2022/04/20 07:52:41;;;;;;;14.27;10.80;;;33.20;24.50;;;;;;5134418;27;20071;-61
2022/04/20 07:55:13;;;;;;;13.27;10.95;;;34.00;24.70;;;;;;5098819;27;20043;-60
2022/04/20 07:57:42;;;;;;;12.90;9.70;;;34.80;23.90;;;;;;5114812;27;20547;-61
2022/04/20 08:00:09;;;;;;;15.40;10.00;;;34.40;23.60;;;;;;5113972;27;20495;-58
2022/04/20 08:02:35;;;;;;;15.00;9.88;;;33.10;23.60;;;;;;5131881;27;20053;-60
2022/04/20 08:05:01;;;;;;;11.00;9.90;;;32.20;24.50;;;;;;5115167;27;20472;-60
2022/04/20 08:07:27;;;;;;;10.05;9.07;;;31.70;24.70;;;;;;5128667;27;20030;-60
2022/04/20 08:09:54;;;;;;;13.07;9.82;;;31.70;25.00;;;;;;5128625;27;20140;-62
2022/04/20 08:12:19;;;;;;;12.27;9.55;;;31.70;24.90;;;;;;5128753;27;20023;-56
2022/04/20 08:14:45;;;;;;;13.23;10.25;;;30.40;25.10;;;;;;5111807;27;20482;-57
2022/04/20 08:17:11;;;;;;;14.02;11.82;;;28.50;26.60;;;;;;5107907;27;20060;-60
2022/04/20 08:19:37;;;;;;;14.13;12.70;;;26.40;27.50;;;;;;5111263;27;20030;-58
2022/04/20 08:22:06;;;;;;;15.02;11.02;;;26.80;28.30;;;;;;5113785;27;20480;-55
2022/04/20 08:24:32;;;;;;;13.10;11.80;;;29.30;27.20;;;;;;5131598;27;20023;-59
2022/04/20 08:26:58;;;;;;;15.15;11.60;;;29.10;26.30;;;;;;5129381;27;20023;-58
2022/04/20 08:29:24;;;;;;;12.63;10.23;;;30.30;25.80;;;;;;5113727;27;20408;-62
2022/04/20 08:31:49;;;;;;;17.42;11.48;;;30.80;25.30;;;;;;5129234;27;20448;-61
2022/04/20 08:34:15;;;;;;;16.73;11.95;;;29.30;25.70;;;;;;5112937;27;20034;-64
2022/04/20 08:36:41;;;;;;;12.90;10.52;;;30.20;25.50;;;;;;5111007;27;20543;-57
2022/04/20 08:39:07;;;;;;;11.43;10.18;;;30.90;24.80;;;;;;5132008;27;20031;-62
2022/04/20 08:41:34;;;;;;;13.00;10.30;;;31.60;24.00;;;;;;5131746;27;20039;-57
2022/04/20 08:44:02;;;;;;;21.90;12.07;;;30.40;24.20;;;;;;5132763;27;20019;-61
2022/04/20 08:46:37;;;;;;;16.83;11.25;;;31.20;24.40;;;;;;5103115;27;20019;-61
2022/04/20 08:49:04;;;;;;;18.58;11.15;;;32.70;23.60;;;;;;5111593;27;20045;-60
2022/04/20 08:52:37;;;;;;;15.43;11.30;;;33.70;23.30;;;;;;5110215;27;20110;-61
2022/04/20 08:54:19;;;;;;;16.70;9.93;;;34.50;22.90;;;;;;5128512;27;20019;-56
2022/04/20 08:59:31;;;;;;;16.85;11.02;;;30.10;23.30;;;;;;5129597;27;20156;-61
2022/04/20 09:02:18;;;;;;;13.57;11.32;;;27.50;24.90;;;;;;5128075;27;20144;-61
2022/04/20 09:04:44;;;;;;;13.10;10.77;;;25.80;25.80;;;;;;5111479;27;20160;-60
2022/04/20 09:07:14;;;;;;;12.35;11.10;;;24.00;27.10;;;;;;5109922;27;20026;-65
2022/04/20 09:09:41;;;;;;;14.65;11.85;;;22.50;28.50;;;;;;5131733;27;20058;-61
2022/04/20 09:12:11;;;;;;;14.70;11.65;;;21.60;29.40;;;;;;5113732;27;20099;-54
2022/04/20 09:14:39;;;;;;;13.93;11.13;;;21.00;30.00;;;;;;5111497;27;20102;-56
2022/04/20 09:17:05;;;;;;;16.27;11.35;;;20.60;30.50;;;;;;5133757;27;20019;-59
2022/04/20 09:19:31;;;;;;;14.50;12.55;;;20.30;31.00;;;;;;5133068;27;20028;-66
2022/04/20 09:21:56;;;;;;;16.38;12.40;;;20.00;31.40;;;;;;5110817;28;20481;-58
2022/04/20 09:24:23;;;;;;;16.20;13.07;;;19.80;31.90;;;;;;5110549;28;20026;-59
2022/04/20 09:26:57;;;;;;;20.08;11.68;;;19.60;32.10;;;;;;5114570;28;20062;-59
2022/04/20 09:29:23;;;;;;;14.23;10.65;;;19.10;32.40;;;;;;5111792;28;20026;-57
2022/04/20 09:31:53;;;;;;;12.05;10.63;;;18.70;32.60;;;;;;5112834;28;20019;-57
2022/04/20 09:34:33;;;;;;;13.20;10.93;;;18.70;32.10;;;;;;5133927;27;20019;-61
2022/04/20 09:37:10;;;;;;;15.65;11.18;;;18.80;32.00;;;;;;5132552;27;20031;-65
2022/04/20 09:39:35;;;;;;;17.45;12.40;;;18.80;32.00;;;;;;5129513;28;20023;-63
2022/04/20 09:42:04;;;;;;;14.80;11.68;;;18.90;32.30;;;;;;5112308;28;20543;-62
2022/04/20 09:44:30;;;;;;;13.82;10.68;;;18.90;32.40;;;;;;5130542;27;20043;-56
2022/04/20 09:50:01;;;;;;;11.80;10.00;;;18.70;32.60;;;;;;5129062;28;20092;-59
2022/04/20 09:52:43;;;;;;;11.68;10.40;;;18.60;32.40;;;;;;5128553;27;20019;-65
2022/04/20 09:55:15;;;;;;;23.40;12.00;;;18.50;32.80;;;;;;5130973;27;20027;-61
2022/04/20 09:57:41;;;;;;;17.45;11.88;;;18.50;33.10;;;;;;5115532;27;20126;-59
2022/04/20 10:00:11;;;;;;;15.93;12.10;;;18.10;33.40;;;;;;5135156;27;20035;-58
2022/04/20 10:02:57;;;;;;;15.20;12.32;;;17.90;33.60;;;;;;5131342;27;20548;-63
2022/04/20 10:05:23;;;;;;;14.40;10.98;;;17.60;34.30;;;;;;5112503;27;20035;-58
2022/04/20 10:07:51;;;;;;;14.27;10.38;;;17.10;34.40;;;;;;5114987;27;20084;-55
2022/04/20 10:10:17;;;;;;;12.77;11.35;;;17.10;34.50;;;;;;5112681;27;20032;-62
2022/04/20 10:12:44;;;;;;;13.98;12.20;;;17.00;34.70;;;;;;5133715;27;20027;-59
2022/04/20 10:17:56;;;;;;;12.45;11.13;;;17.10;35.20;;;;;;5134000;27;20083;-62
2022/04/20 10:20:26;;;;;;;17.25;11.75;;;17.10;35.10;;;;;;5134670;27;20035;-58
2022/04/20 10:22:54;;;;;;;14.38;11.60;;;17.30;35.30;;;;;;5133881;27;20097;-61
2022/04/20 10:25:21;;;;;;;13.15;9.95;;;17.40;35.10;;;;;;5114789;27;20023;-62
2022/04/20 10:27:59;;;;;;;14.05;10.70;;;17.20;35.50;;;;;;5114137;27;20417;-63
2022/04/20 10:30:52;;;;;;;19.92;13.13;;;17.40;36.10;;;;;;5133422;27;20031;-62
2022/04/20 10:33:23;;;;;;;13.82;10.48;;;17.60;35.00;;;;;;5133445;27;20020;-64
2022/04/20 10:35:54;;;;;;;15.25;11.38;;;17.70;34.40;;;;;;5132781;27;20072;-60
2022/04/20 10:38:21;;;;;;;23.80;13.05;;;17.70;34.20;;;;;;5130511;27;20035;-59
2022/04/20 10:41:11;;;;;;;21.35;11.30;;;17.60;33.80;;;;;;5114959;27;20464;-59
2022/04/20 10:43:42;;;;;;;12.88;10.85;;;17.50;33.70;;;;;;5132524;27;20207;-59
2022/04/20 10:46:19;;;;;;;13.70;10.82;;;17.10;34.50;;;;;;5133495;27;20043;-64
2022/04/20 10:48:45;;;;;;;19.85;10.98;;;17.00;34.80;;;;;;5114511;27;20023;-60
2022/04/20 10:51:16;;;;;;;13.35;10.95;;;16.50;35.50;;;;;;5114727;27;20027;-64
2022/04/20 10:53:50;;;;;;;16.98;12.82;;;16.60;35.80;;;;;;5131096;27;20069;-59
2022/04/20 10:56:18;;;;;;;24.45;16.95;;;16.80;36.30;;;;;;5112052;27;20031;-57
2022/04/20 10:58:52;;;;;;;18.35;14.77;;;16.90;35.90;;;;;;5132263;27;20519;-66
2022/04/20 11:01:18;;;;;;;13.35;10.02;;;17.20;35.70;;;;;;5113926;27;20118;-65
2022/04/20 11:04:07;;;;;;;20.00;11.85;;;17.40;35.20;;;;;;5114408;27;20031;-61
2022/04/20 11:07:04;;;;;;;11.80;10.02;;;17.40;34.70;;;;;;5130581;27;20041;-60
2022/04/20 11:09:45;;;;;;;12.68;9.63;;;17.10;34.00;;;;;;5113306;27;20088;-60
2022/04/20 11:21:11;;;;;;;15.18;11.13;;;17.00;35.40;;;;;;5131231;27;20138;-63
2022/04/20 11:23:57;;;;;;;15.48;11.25;;;17.10;35.00;;;;;;5131923;27;20484;-63
2022/04/20 11:26:30;;;;;;;22.63;14.15;;;17.30;35.20;;;;;;5113655;27;20039;-61
2022/04/20 11:29:11;;;;;;;14.77;10.57;;;17.20;35.50;;;;;;5095659;27;20043;-60
2022/04/20 11:31:51;;;;;;;17.13;10.50;;;17.20;35.60;;;;;;5129514;27;20180;-58
2022/04/20 11:34:22;;;;;;;13.80;10.00;;;17.00;35.80;;;;;;5110981;27;20337;-66
2022/04/20 11:36:51;;;;;;;15.60;10.55;;;16.90;36.00;;;;;;5113560;27;20027;-57
2022/04/20 11:39:21;;;;;;;12.57;10.20;;;17.00;35.90;;;;;;5114346;27;20035;-62
2022/04/20 11:41:49;;;;;;;11.18;10.00;;;17.20;35.70;;;;;;5133528;27;20042;-58
2022/04/20 11:44:22;;;;;;;11.90;10.02;;;17.30;35.20;;;;;;5114721;27;20023;-58
2022/04/20 11:46:49;;;;;;;10.48;9.43;;;17.20;35.40;;;;;;5133047;27;20024;-58
2022/04/20 11:49:15;;;;;;;11.95;9.50;;;17.10;34.60;;;;;;5132986;27;20091;-59
2022/04/20 11:51:46;;;;;;;10.70;9.57;;;16.90;34.70;;;;;;5113641;27;20030;-59
2022/04/20 11:54:21;;;;;;;16.52;9.98;;;16.90;34.70;;;;;;5133416;27;20019;-57
2022/04/20 11:56:48;;;;;;;15.77;10.15;;;16.90;34.90;;;;;;5110359;27;20095;-59
2022/04/20 11:59:15;;;;;;;15.98;11.10;;;17.00;35.20;;;;;;5113992;27;20402;-57
2022/04/20 12:01:42;;;;;;;13.80;11.45;;;17.20;35.00;;;;;;5113242;27;20034;-56
2022/04/20 12:04:16;;;;;;;18.25;9.55;;;17.30;34.80;;;;;;5128674;27;20027;-60
2022/04/20 12:06:54;;;;;;;14.52;10.30;;;17.20;34.40;;;;;;5130834;27;20476;-64
2022/04/20 12:09:22;;;;;;;21.65;16.40;;;17.30;34.30;;;;;;5132188;27;20058;-61
2022/04/20 12:11:54;;;;;;;17.63;10.45;;;17.60;35.00;;;;;;5129616;27;20034;-61
2022/04/20 12:14:23;;;;;;;20.88;11.95;;;17.90;33.70;;;;;;5094128;27;20475;-57
2022/04/20 12:16:51;;;;;;;17.77;10.95;;;17.90;33.00;;;;;;5129681;27;20027;-60
2022/04/20 12:19:19;;;;;;;10.60;8.38;;;17.90;32.90;;;;;;5129986;27;20023;-60
2022/04/20 12:21:47;;;;;;;11.25;9.15;;;17.90;32.70;;;;;;5131885;27;20069;-57
2022/04/20 12:24:25;;;;;;;17.70;13.52;;;18.00;32.40;;;;;;5112504;27;20383;-61
2022/04/20 12:26:53;;;;;;;68.40;43.25;;;17.80;32.30;;;;;;5113171;27;20031;-57
2022/04/20 12:29:22;;;;;;;27.27;12.43;;;17.20;33.10;;;;;;5112931;27;20035;-62
2022/04/20 12:31:49;;;;;;;15.40;9.90;;;16.90;34.00;;;;;;5095482;27;20491;-57
2022/04/20 12:34:19;;;;;;;14.40;9.70;;;16.80;33.90;;;;;;5113931;27;20103;-56
2022/04/20 12:37:07;;;;;;;21.73;12.82;;;16.80;34.30;;;;;;5130660;27;20024;-59
2022/04/20 12:39:39;;;;;;;12.88;8.93;;;16.80;34.20;;;;;;5112007;27;20060;-57
2022/04/20 12:42:13;;;;;;;10.32;8.77;;;16.90;34.00;;;;;;5129216;27;20043;-55
2022/04/20 12:44:46;;;;;;;14.65;9.75;;;17.00;33.70;;;;;;5112259;27;20231;-59
2022/04/20 12:47:14;;;;;;;12.40;9.30;;;16.90;33.70;;;;;;5114459;27;20088;-58
2022/04/20 12:49:41;;;;;;;10.20;8.85;;;17.10;34.00;;;;;;5128387;27;20043;-57
2022/04/20 12:52:12;;;;;;;14.70;9.35;;;17.40;33.40;;;;;;5129016;27;20073;-59
2022/04/20 12:54:38;;;;;;;15.18;10.43;;;17.50;32.90;;;;;;5130165;27;20079;-59
2022/04/20 13:03:09;;;;;;;15.13;8.93;;;17.80;32.30;;;;;;5131521;27;20029;-57
2022/04/20 13:05:37;;;;;;;17.88;10.02;;;17.90;31.80;;;;;;5112588;27;20020;-58
2022/04/20 13:08:07;;;;;;;10.60;7.85;;;17.90;32.20;;;;;;5131947;27;20144;-58
2022/04/20 13:10:59;;;;;;;8.75;7.85;;;17.90;31.90;;;;;;5130897;27;20136;-59
2022/04/20 13:13:28;;;;;;;11.45;8.00;;;17.70;31.90;;;;;;5127226;27;20035;-58
2022/04/20 13:15:54;;;;;;;17.13;9.73;;;17.60;32.10;;;;;;5113045;27;20127;-65
2022/04/20 13:18:21;;;;;;;20.73;9.93;;;17.60;32.40;;;;;;5131690;27;20541;-59
2022/04/20 13:20:47;;;;;;;27.98;9.40;;;17.80;32.30;;;;;;5113509;27;20034;-59